WADD/DPS METAR and TAF weather

Enter ICAO airport designator
Station Type Date Time Source
WADD METAR 2020/02/24 07:00 UTC NOAA

WADD 240700Z 26008KT 9999 FEW017 32/26 Q1007 NOSIG


Station Type Date Time Source
WADD Decoded METAR 2020/02/24 07:00 UTC NOAA

Station name not available
Feb 24, 2020 - 02:00 AM EST / 2020.02.24 0700 UTC
Wind: from the W (260 degrees) at 9 MPH (8 KT):0
Visibility: greater than 7 mile(s):0
Sky conditions: mostly clear
Temperature: 89 F (32 C)
Heat index: 102.9 F (39.4 C):1
Dew Point: 78 F (26 C)
Relative Humidity: 70%
Pressure (altimeter): 29.74 in. Hg (1007 hPa)
ob: WADD 240700Z 26008KT 9999 FEW017 32/26 Q1007 NOSIG
cycle: 7

Station Type Date Time Source
WADD TAF 2020/02/24 06:09 UTC NOAA

TAF WADD 240500Z 2406/2506 VRB05KT 9999 SCT016
TEMPO 2408/2412 FEW015CB SCT016

Example: see airport list